Time;durP1;ratioP1;P1;durP2;ratioP2;P2;SDS_P1;SDS_P2;PMS_P1;PMS_P2;Temp;Humidity;BMP_temperature;BMP_pressure;BME280_temperature;BME280_humidity;BME280_pressure;Samples;Min_cycle;Max_cycle;Signal;HPM_P1;HPM_P2
2023/06/10 00:01:51;;;;;;;17.73;7.77;;;;;;;19.79;59.22;100183.72;4214583;28;20247;-75
2023/06/10 00:04:18;;;;;;;15.17;8.40;;;;;;;19.78;58.87;100183.94;4219536;28;20234;-76
2023/06/10 00:06:44;;;;;;;11.30;7.40;;;;;;;19.76;57.47;100180.56;4229947;28;20541;-75
2023/06/10 00:09:11;;;;;;;12.93;6.97;;;;;;;19.66;56.65;100171.94;4226378;28;20235;-80
2023/06/10 00:11:38;;;;;;;16.17;6.97;;;;;;;19.67;55.35;100176.38;4228279;28;21220;-78
2023/06/10 00:14:05;;;;;;;9.87;6.67;;;;;;;19.54;54.94;100172.56;4228737;28;21711;-73
2023/06/10 00:16:32;;;;;;;14.03;6.60;;;;;;;19.44;53.74;100174.91;4234958;28;20239;-75
2023/06/10 00:19:01;;;;;;;12.90;5.80;;;;;;;19.35;53.68;100170.69;4232579;28;23509;-77
2023/06/10 00:21:28;;;;;;;10.77;4.93;;;;;;;19.36;52.63;100172.38;4217238;28;22977;-77
2023/06/10 00:23:55;;;;;;;8.57;5.60;;;;;;;19.26;52.57;100168.16;4227606;28;21986;-76
2023/06/10 00:26:22;;;;;;;9.07;5.23;;;;;;;19.19;52.45;100171.94;4237351;28;22810;-77
2023/06/10 00:28:49;;;;;;;8.70;5.63;;;;;;;19.08;52.42;100168.78;4249011;28;20228;-77
2023/06/10 00:31:17;;;;;;;11.53;5.30;;;;;;;19.16;51.86;100165.00;4207651;28;20241;-75
2023/06/10 00:33:44;;;;;;;9.23;4.87;;;;;;;19.10;51.09;100163.94;4214450;28;20232;-75
2023/06/10 00:36:10;;;;;;;8.17;4.80;;;;;;;19.05;50.90;100162.88;4229491;28;20235;-76
2023/06/10 00:38:37;;;;;;;9.97;4.67;;;;;;;19.04;50.37;100161.19;4234985;28;20752;-76
2023/06/10 00:41:03;;;;;;;10.37;4.60;;;;;;;19.00;49.97;100164.34;4211108;28;20309;-77
2023/06/10 00:43:30;;;;;;;11.70;5.13;;;;;;;18.94;49.37;100167.94;4223811;28;20235;-75
2023/06/10 00:45:57;;;;;;;8.67;4.37;;;;;;;18.93;49.35;100159.91;4234403;28;21719;-76
2023/06/10 00:48:24;;;;;;;11.43;4.80;;;;;;;18.91;49.16;100167.47;4215576;28;21230;-78
2023/06/10 00:50:51;;;;;;;13.27;4.90;;;;;;;18.82;48.45;100153.97;4230948;28;20238;-74
2023/06/10 00:53:18;;;;;;;11.33;4.17;;;;;;;18.78;47.94;100157.31;4230303;28;21802;-74
2023/06/10 00:55:44;;;;;;;7.87;4.67;;;;;;;18.75;47.82;100160.50;4228555;28;20767;-77
2023/06/10 00:58:11;;;;;;;13.00;4.10;;;;;;;18.66;47.61;100159.84;4235660;28;23139;-81
2023/06/10 01:00:38;;;;;;;13.97;4.63;;;;;;;18.67;47.40;100164.25;4226792;28;20231;-79
2023/06/10 01:03:08;;;;;;;8.30;4.67;;;;;;;18.61;47.65;100173.31;4227137;28;20236;-77
2023/06/10 01:05:36;;;;;;;8.83;4.50;;;;;;;18.44;48.02;100170.13;4229117;28;20227;-75
2023/06/10 01:08:29;;;;;;;11.73;4.37;;;;;;;18.41;47.90;100170.53;4234354;28;20235;-75
2023/06/10 01:11:00;;;;;;;9.13;4.20;;;;;;;18.41;47.59;100176.00;4221217;28;20232;-76
2023/06/10 01:13:31;;;;;;;12.60;4.47;;;;;;;18.34;47.71;100173.25;4221568;28;20382;-77
2023/06/10 01:15:58;;;;;;;10.93;4.73;;;;;;;18.35;47.65;100174.94;4220918;28;20231;-78
2023/06/10 01:18:30;;;;;;;12.80;4.60;;;;;;;18.22;47.46;100178.47;4227480;28;21867;-77
2023/06/10 01:20:57;;;;;;;9.47;3.93;;;;;;;18.25;47.37;100171.72;4213802;28;21700;-82
2023/06/10 01:23:24;;;;;;;10.43;4.30;;;;;;;18.19;47.56;100176.13;4218524;28;20231;-76
2023/06/10 01:25:58;;;;;;;8.07;4.43;;;;;;;18.15;47.64;100178.44;4221678;28;20266;-75
2023/06/10 01:28:47;;;;;;;12.63;4.37;;;;;;;18.17;47.55;100179.09;4226923;28;20283;-81
2023/06/10 01:31:37;;;;;;;12.67;4.37;;;;;;;18.11;47.70;100176.31;4225559;28;26431;-75
2023/06/10 01:34:08;;;;;;;12.70;4.10;;;;;;;18.02;47.80;100186.59;4199246;28;20240;-75
2023/06/10 01:36:36;;;;;;;8.23;4.10;;;;;;;17.97;48.06;100189.94;4224617;28;21251;-75
2023/06/10 01:39:05;;;;;;;12.10;4.43;;;;;;;17.92;48.26;100181.47;4213767;28;20263;-73
2023/06/10 01:41:32;;;;;;;10.80;4.40;;;;;;;17.82;48.59;100191.91;4204984;28;21515;-74
2023/06/10 01:43:59;;;;;;;11.13;4.67;;;;;;;17.82;48.54;100191.91;4230205;28;20231;-73
2023/06/10 01:46:26;;;;;;;11.10;4.70;;;;;;;17.79;48.75;100186.88;4227224;28;20236;-79
2023/06/10 01:48:52;;;;;;;9.30;4.33;;;;;;;17.69;48.83;100182.59;4218016;28;20254;-72
2023/06/10 01:51:19;;;;;;;10.83;4.30;;;;;;;17.83;48.79;100190.88;4212399;28;20290;-75
2023/06/10 01:53:45;;;;;;;21.07;4.90;;;;;;;17.73;49.09;100196.72;4227944;28;21754;-73
2023/06/10 01:56:17;;;;;;;8.03;4.17;;;;;;;17.67;49.24;100209.31;4207101;28;20235;-74
2023/06/10 01:58:44;;;;;;;16.07;4.70;;;;;;;17.60;49.63;100202.94;4220924;28;20232;-74
2023/06/10 02:01:11;;;;;;;10.53;4.47;;;;;;;17.58;49.61;100203.16;4214847;28;20365;-73
2023/06/10 02:03:38;;;;;;;13.30;4.40;;;;;;;17.54;49.70;100199.09;4205763;28;20239;-73
2023/06/10 02:06:05;;;;;;;10.30;4.17;;;;;;;17.42;50.25;100192.50;4236436;28;22287;-74
2023/06/10 02:08:31;;;;;;;10.70;4.50;;;;;;;17.37;50.57;100204.03;4217088;28;24453;-74
2023/06/10 02:10:58;;;;;;;8.90;4.00;;;;;;;17.31;50.74;100207.56;4219141;28;20626;-75
2023/06/10 02:13:24;;;;;;;12.27;4.70;;;;;;;17.32;50.89;100206.53;4224792;28;20263;-75
2023/06/10 02:15:53;;;;;;;22.33;4.47;;;;;;;17.31;51.12;100206.69;4235689;28;23496;-72
2023/06/10 02:18:20;;;;;;;8.43;4.13;;;;;;;17.30;51.26;100205.88;4241353;28;22284;-74
2023/06/10 02:20:47;;;;;;;11.67;4.00;;;;;;;17.29;51.47;100208.81;4213217;28;20229;-74
2023/06/10 02:23:13;;;;;;;14.03;4.00;;;;;;;17.18;51.76;100207.44;4226973;28;20605;-72
2023/06/10 02:25:40;;;;;;;11.73;4.37;;;;;;;17.16;51.81;100204.06;4234552;28;20294;-74
2023/06/10 02:28:07;;;;;;;13.13;4.30;;;;;;;17.18;52.04;100205.56;4238495;28;20285;-74
2023/06/10 02:30:33;;;;;;;10.80;3.93;;;;;;;17.08;52.25;100205.88;4230138;28;20243;-73
2023/06/10 02:33:01;;;;;;;10.00;4.43;;;;;;;17.17;52.15;100205.75;4241268;28;21784;-72
2023/06/10 02:35:27;;;;;;;16.97;4.63;;;;;;;17.15;52.06;100216.88;4215808;28;21655;-74
2023/06/10 02:37:54;;;;;;;11.13;4.23;;;;;;;17.06;52.31;100213.44;4271777;28;20287;-74
2023/06/10 02:40:21;;;;;;;12.50;4.53;;;;;;;17.07;52.58;100217.03;4238982;28;22214;-73
2023/06/10 02:42:47;;;;;;;8.20;4.20;;;;;;;17.14;52.49;100217.06;4219348;28;22369;-74
2023/06/10 02:45:14;;;;;;;13.73;4.27;;;;;;;17.11;52.61;100227.34;4224047;28;20236;-73
2023/06/10 02:47:41;;;;;;;14.97;4.23;;;;;;;17.05;52.77;100222.69;4235059;28;21432;-72
2023/06/10 02:50:08;;;;;;;11.10;4.30;;;;;;;17.12;52.93;100225.50;4225747;28;20568;-73
2023/06/10 02:52:35;;;;;;;12.40;4.73;;;;;;;17.11;52.94;100226.53;4226473;28;20542;-74
2023/06/10 02:55:01;;;;;;;11.90;4.57;;;;;;;17.15;52.86;100225.09;4246506;28;21294;-76
2023/06/10 02:57:28;;;;;;;12.57;4.13;;;;;;;17.06;53.28;100237.22;4240190;28;21663;-73
2023/06/10 02:59:55;;;;;;;10.63;4.07;;;;;;;17.05;53.31;100239.09;4243231;28;20275;-78
2023/06/10 03:02:21;;;;;;;11.67;4.17;;;;;;;17.13;53.28;100242.72;4241277;28;20239;-74
2023/06/10 03:04:50;;;;;;;15.43;4.73;;;;;;;17.03;53.64;100237.59;4252237;28;21666;-76
2023/06/10 03:07:17;;;;;;;12.07;4.07;;;;;;;17.02;53.64;100234.03;4228824;28;20294;-75
2023/06/10 03:09:44;;;;;;;9.70;4.20;;;;;;;17.07;53.72;100227.97;4231966;28;21938;-76
2023/06/10 03:12:11;;;;;;;7.67;4.30;;;;;;;17.16;53.53;100234.16;4249023;28;21009;-74
2023/06/10 03:14:38;;;;;;;11.77;4.03;;;;;;;17.12;53.61;100230.97;4211291;28;20620;-74
2023/06/10 03:17:06;;;;;;;10.37;4.63;;;;;;;17.09;53.78;100228.59;4217395;28;20353;-74
2023/06/10 03:19:33;;;;;;;9.53;4.27;;;;;;;17.07;54.04;100237.00;4213951;28;20304;-74
2023/06/10 03:22:10;;;;;;;9.93;3.70;;;;;;;17.08;54.02;100233.25;4228538;28;20613;-74
2023/06/10 03:24:39;;;;;;;11.73;4.30;;;;;;;17.02;54.45;100238.63;4212136;28;20232;-75
2023/06/10 03:27:07;;;;;;;13.17;4.30;;;;;;;17.08;54.45;100243.31;4207047;28;20302;-75
2023/06/10 03:29:34;;;;;;;11.80;4.27;;;;;;;17.05;54.33;100241.00;4237278;28;20231;-77
2023/06/10 03:32:01;;;;;;;13.33;4.37;;;;;;;17.08;54.13;100246.91;4234473;28;20332;-72
2023/06/10 03:34:29;;;;;;;9.77;4.10;;;;;;;17.16;54.41;100237.72;4211499;28;21500;-73
2023/06/10 03:36:56;;;;;;;10.60;3.73;;;;;;;17.19;54.10;100240.06;4203004;28;20238;-75
2023/06/10 03:39:23;;;;;;;8.80;3.83;;;;;;;17.21;54.15;100246.22;4229254;28;20247;-73
2023/06/10 03:41:50;;;;;;;8.53;3.87;;;;;;;17.26;54.32;100251.91;4203068;28;20302;-74
2023/06/10 03:44:17;;;;;;;9.27;3.83;;;;;;;17.32;53.92;100244.81;4203521;28;20240;-74
2023/06/10 03:46:44;;;;;;;15.40;3.90;;;;;;;17.38;53.95;100243.16;4214206;28;22280;-75
2023/06/10 03:49:10;;;;;;;9.77;4.17;;;;;;;17.51;53.70;100250.66;4207568;28;20232;-75
2023/06/10 03:51:37;;;;;;;13.80;4.30;;;;;;;17.49;53.84;100248.13;4230436;28;20232;-75
2023/06/10 03:54:03;;;;;;;14.60;4.03;;;;;;;17.63;53.44;100249.09;4224053;28;20622;-73
2023/06/10 03:56:31;;;;;;;12.70;4.23;;;;;;;17.67;53.25;100258.59;4218746;28;26276;-80
2023/06/10 03:58:57;;;;;;;15.47;4.00;;;;;;;17.69;53.46;100259.25;4218603;28;21176;-75
2023/06/10 04:01:24;;;;;;;13.57;4.10;;;;;;;17.73;53.40;100263.25;4217702;28;21654;-72
2023/06/10 04:03:53;;;;;;;14.00;4.40;;;;;;;17.88;53.37;100265.03;4212092;28;24904;-75
2023/06/10 04:06:22;;;;;;;12.80;4.47;;;;;;;17.99;52.93;100266.41;4219194;28;20239;-73
2023/06/10 04:08:49;;;;;;;13.30;4.27;;;;;;;18.03;52.93;100265.81;4211105;28;20297;-76
2023/06/10 04:11:15;;;;;;;9.73;4.20;;;;;;;18.16;52.49;100265.06;4218543;28;20275;-78
2023/06/10 04:13:42;;;;;;;10.27;3.80;;;;;;;18.13;52.76;100259.97;4225251;28;20240;-73
2023/06/10 04:16:08;;;;;;;11.10;3.90;;;;;;;18.29;52.39;100257.94;4198463;28;20299;-76
2023/06/10 04:18:35;;;;;;;17.60;4.43;;;;;;;18.36;52.18;100256.09;4220543;28;20413;-77
2023/06/10 04:21:02;;;;;;;13.20;3.90;;;;;;;18.38;52.35;100259.47;4229303;28;20236;-73
2023/06/10 04:23:29;;;;;;;8.87;4.07;;;;;;;18.50;51.98;100262.47;4227684;28;20239;-75
2023/06/10 04:25:55;;;;;;;11.20;4.10;;;;;;;18.58;51.59;100261.47;4219664;28;20232;-74
2023/06/10 04:28:22;;;;;;;14.70;4.37;;;;;;;18.61;51.95;100261.91;4216866;28;20237;-75
2023/06/10 04:30:48;;;;;;;8.20;3.80;;;;;;;18.75;51.54;100261.97;4218162;28;20236;-75
2023/06/10 04:33:16;;;;;;;14.47;4.40;;;;;;;18.78;51.34;100267.00;4222333;28;20290;-71
2023/06/10 04:35:42;;;;;;;11.30;3.90;;;;;;;18.93;51.32;100269.63;4216718;28;20234;-72
2023/06/10 04:38:09;;;;;;;14.07;4.10;;;;;;;18.87;51.18;100270.44;4213243;28;20504;-72
2023/06/10 04:40:35;;;;;;;9.93;3.50;;;;;;;18.96;51.00;100272.81;4232326;28;20239;-72
2023/06/10 04:43:03;;;;;;;9.23;3.80;;;;;;;18.93;50.85;100269.63;4220961;28;20947;-73
2023/06/10 04:45:30;;;;;;;10.10;3.77;;;;;;;18.86;51.04;100272.31;4211486;28;20228;-72
2023/06/10 04:47:57;;;;;;;12.10;4.00;;;;;;;18.85;51.21;100276.97;4214755;28;21165;-75
2023/06/10 04:50:24;;;;;;;10.70;3.90;;;;;;;18.89;51.08;100277.41;4228545;28;20373;-73
2023/06/10 04:52:53;;;;;;;14.27;4.37;;;;;;;18.85;51.24;100278.84;4244046;28;22184;-80
2023/06/10 04:55:21;;;;;;;9.23;4.00;;;;;;;18.98;51.17;100283.56;4239008;28;20311;-74
2023/06/10 04:57:47;;;;;;;9.57;4.07;;;;;;;19.14;50.75;100287.84;4243384;28;20235;-80
2023/06/10 05:00:18;;;;;;;12.53;4.43;;;;;;;19.15;50.85;100281.28;4220945;28;20316;-73
2023/06/10 05:02:44;;;;;;;21.93;4.17;;;;;;;19.25;50.94;100287.22;4202748;28;20279;-75
2023/06/10 05:05:11;;;;;;;11.37;3.37;;;;;;;19.31;50.73;100291.03;4239208;28;20241;-72
2023/06/10 05:07:38;;;;;;;19.40;4.00;;;;;;;19.47;49.89;100289.78;4217359;28;20362;-76
2023/06/10 05:10:05;;;;;;;17.83;4.10;;;;;;;19.36;50.47;100290.41;4235345;28;20231;-73
2023/06/10 05:12:31;;;;;;;12.13;4.10;;;;;;;19.46;50.01;100294.44;4225101;28;20237;-73
2023/06/10 05:14:58;;;;;;;11.03;4.43;;;;;;;19.46;50.14;100297.19;4227683;28;20248;-77
2023/06/10 05:17:25;;;;;;;11.13;3.83;;;;;;;19.47;50.13;100287.91;4220433;28;21757;-73
2023/06/10 05:19:52;;;;;;;16.00;3.97;;;;;;;19.57;49.69;100301.19;4225825;28;21279;-72
2023/06/10 05:22:19;;;;;;;10.33;4.40;;;;;;;19.71;49.35;100292.97;4245587;28;20240;-76
2023/06/10 05:24:45;;;;;;;14.53;3.93;;;;;;;19.95;48.96;100294.22;4232411;28;20551;-74
2023/06/10 05:27:12;;;;;;;10.60;4.03;;;;;;;20.04;48.81;100297.63;4217232;28;20228;-75
2023/06/10 05:29:39;;;;;;;8.70;3.90;;;;;;;20.02;48.72;100297.00;4210512;28;21146;-72
2023/06/10 05:32:07;;;;;;;9.07;4.23;;;;;;;20.11;48.75;100299.28;4232815;28;20246;-73
2023/06/10 05:34:33;;;;;;;15.37;3.87;;;;;;;20.16;48.55;100298.66;4218020;28;20244;-78
2023/06/10 05:37:00;;;;;;;7.37;3.77;;;;;;;20.25;48.28;100296.50;4221534;28;20303;-78
2023/06/10 05:39:27;;;;;;;10.30;4.20;;;;;;;20.44;47.90;100300.25;4220166;28;20293;-74
2023/06/10 05:41:53;;;;;;;9.57;4.30;;;;;;;20.88;46.89;100295.06;4217294;28;22196;-72
2023/06/10 05:44:20;;;;;;;7.87;4.13;;;;;;;21.40;45.48;100286.72;4228611;28;21668;-71
2023/06/10 05:46:46;;;;;;;13.63;3.70;;;;;;;21.87;44.81;100294.63;4223209;28;20295;-74
2023/06/10 05:49:13;;;;;;;10.80;3.80;;;;;;;22.12;44.09;100294.59;4240572;28;21164;-82
2023/06/10 05:51:40;;;;;;;12.93;4.13;;;;;;;22.27;43.54;100297.00;4244516;28;20238;-77
2023/06/10 05:54:06;;;;;;;13.13;4.00;;;;;;;22.87;42.63;100292.69;4237400;28;20250;-80
2023/06/10 05:56:36;;;;;;;8.50;3.57;;;;;;;23.30;41.78;100307.41;4252223;28;20337;-78
2023/06/10 05:59:03;;;;;;;14.07;3.93;;;;;;;23.72;40.93;100312.94;4271236;28;21087;-76
2023/06/10 06:01:32;;;;;;;11.43;4.33;;;;;;;23.68;40.82;100306.19;4254347;28;21832;-77
2023/06/10 06:03:58;;;;;;;14.70;4.00;;;;;;;24.35;39.19;100313.34;4186788;28;20255;-67
2023/06/10 06:06:25;;;;;;;15.70;4.10;;;;;;;25.30;37.93;100302.00;4211847;28;22388;-64
2023/06/10 06:08:52;;;;;;;9.13;3.90;;;;;;;26.09;36.93;100307.81;4220819;28;21799;-67
2023/06/10 06:11:18;;;;;;;14.63;4.27;;;;;;;26.94;35.13;100310.34;4208743;28;25419;-66
2023/06/10 06:13:45;;;;;;;8.30;4.20;;;;;;;27.03;34.52;100302.38;4209462;28;20238;-70
2023/06/10 06:16:11;;;;;;;7.65;3.85;;;;;;;26.77;35.08;100304.88;4213144;28;20229;-68
2023/06/10 06:18:38;;;;;;;10.57;3.70;;;;;;;27.25;34.51;100301.50;4205083;28;20237;-69
2023/06/10 06:21:05;;;;;;;8.00;3.90;;;;;;;27.19;34.37;100309.78;4213482;28;20319;-69
2023/06/10 06:23:31;;;;;;;7.18;3.40;;;;;;;27.10;34.32;100304.97;4209430;28;20285;-65
2023/06/10 06:25:58;;;;;;;10.73;3.88;;;;;;;27.08;34.50;100307.97;4218473;28;20580;-67
2023/06/10 06:28:28;;;;;;;12.97;4.20;;;;;;;27.73;33.46;100307.22;4224118;28;20446;-67
2023/06/10 06:30:56;;;;;;;6.93;3.97;;;;;;;28.18;33.01;100305.09;4231817;28;20229;-65
2023/06/10 06:33:23;;;;;;;11.93;4.32;;;;;;;26.76;34.81;100310.66;4216300;28;20245;-67
2023/06/10 06:35:50;;;;;;;12.18;4.60;;;;;;;26.34;35.58;100310.09;4203325;28;20227;-63
2023/06/10 06:38:17;;;;;;;12.23;5.80;;;;;;;27.41;34.10;100311.66;4214835;28;20249;-67
2023/06/10 06:40:43;;;;;;;14.77;5.78;;;;;;;27.43;34.18;100312.28;4230419;28;20333;-65
2023/06/10 06:43:10;;;;;;;14.23;5.28;;;;;;;28.76;31.99;100314.34;4223087;28;20234;-68
2023/06/10 06:45:37;;;;;;;10.43;4.35;;;;;;;27.62;33.76;100318.28;4205902;28;20434;-67
2023/06/10 06:48:05;;;;;;;13.55;4.22;;;;;;;27.89;33.07;100313.78;4224907;28;21193;-65
2023/06/10 06:50:32;;;;;;;13.98;4.50;;;;;;;27.20;34.25;100321.72;4222678;28;20244;-67
2023/06/10 06:52:58;;;;;;;14.60;4.18;;;;;;;27.25;34.37;100320.94;4213932;28;20238;-65
2023/06/10 06:55:25;;;;;;;14.73;4.10;;;;;;;27.24;34.27;100322.91;4217385;28;20848;-64
2023/06/10 06:57:51;;;;;;;9.60;4.18;;;;;;;27.68;34.49;100316.41;4232268;28;21032;-65
2023/06/10 07:00:18;;;;;;;11.32;4.30;;;;;;;27.49;33.99;100327.91;4225175;28;20513;-70
2023/06/10 07:02:45;;;;;;;10.57;4.10;;;;;;;28.29;33.56;100334.66;4195018;28;20284;-65
2023/06/10 07:05:11;;;;;;;8.77;4.22;;;;;;;29.51;31.58;100335.47;4215773;28;20238;-71
2023/06/10 07:07:38;;;;;;;9.30;3.75;;;;;;;28.33;33.08;100334.97;4212338;28;20249;-66
2023/06/10 07:10:05;;;;;;;10.15;4.13;;;;;;;27.42;34.22;100330.06;4216712;28;20241;-68
2023/06/10 07:12:32;;;;;;;14.13;4.07;;;;;;;27.60;34.06;100319.66;4201269;28;20251;-66
2023/06/10 07:14:58;;;;;;;12.88;4.60;;;;;;;27.07;35.10;100328.56;4206422;28;20242;-65
2023/06/10 07:17:26;;;;;;;11.70;4.50;;;;;;;27.26;34.76;100330.97;4207142;28;22824;-66
2023/06/10 07:19:57;;;;;;;17.83;4.38;;;;;;;26.56;36.58;100342.59;4213954;28;20247;-65
2023/06/10 07:22:23;;;;;;;15.13;4.15;;;;;;;26.25;36.92;100329.09;4197602;28;21444;-64
2023/06/10 07:24:51;;;;;;;10.10;4.38;;;;;;;26.16;37.49;100324.25;4211580;28;20374;-65
2023/06/10 07:27:18;;;;;;;13.00;4.40;;;;;;;25.59;37.64;100329.69;4212774;28;22619;-66
2023/06/10 07:29:45;;;;;;;12.30;4.53;;;;;;;24.86;39.47;100339.59;4230331;28;20309;-70
2023/06/10 07:32:11;;;;;;;13.38;4.60;;;;;;;24.63;39.87;100327.47;4213597;28;21152;-68
2023/06/10 07:34:38;;;;;;;16.07;4.27;;;;;;;24.81;39.14;100332.06;4212074;28;20310;-64
2023/06/10 07:37:05;;;;;;;11.65;4.32;;;;;;;24.48;40.18;100341.84;4227918;28;20238;-72
2023/06/10 07:39:31;;;;;;;13.05;4.22;;;;;;;24.28;40.59;100343.06;4222437;28;20283;-66
2023/06/10 07:41:58;;;;;;;11.05;4.40;;;;;;;24.24;40.65;100339.06;4205300;28;20251;-66
2023/06/10 07:44:25;;;;;;;8.43;3.92;;;;;;;24.26;39.86;100331.38;4213294;28;20240;-70
2023/06/10 07:46:51;;;;;;;12.27;4.23;;;;;;;23.91;41.02;100334.94;4218039;28;21688;-67
2023/06/10 07:49:18;;;;;;;12.85;4.05;;;;;;;24.65;39.89;100348.31;4222400;28;22992;-66
2023/06/10 07:51:45;;;;;;;10.53;4.17;;;;;;;24.51;40.52;100341.31;4223991;28;20233;-70
2023/06/10 07:54:12;;;;;;;10.55;4.57;;;;;;;25.01;39.26;100351.00;4222517;28;20235;-68
2023/06/10 07:56:39;;;;;;;11.90;4.47;;;;;;;24.80;39.30;100360.81;4219428;28;20236;-71
2023/06/10 07:59:06;;;;;;;10.20;4.35;;;;;;;24.42;40.57;100357.47;4240430;28;20236;-69
2023/06/10 08:01:32;;;;;;;8.65;4.28;;;;;;;24.94;39.28;100353.06;4209977;28;20242;-71
2023/06/10 08:03:59;;;;;;;13.90;4.83;;;;;;;24.98;39.55;100351.50;4238944;28;20430;-69
2023/06/10 08:06:26;;;;;;;13.55;4.57;;;;;;;24.94;39.07;100350.31;4228145;28;22455;-70
2023/06/10 08:08:53;;;;;;;11.50;4.70;;;;;;;24.64;40.01;100357.69;4221977;28;21136;-71
2023/06/10 08:11:20;;;;;;;9.65;4.10;;;;;;;24.45;39.83;100356.13;4229169;28;21554;-71
2023/06/10 08:13:47;;;;;;;12.05;4.15;;;;;;;24.28;40.35;100351.34;4220259;28;21511;-66
2023/06/10 08:16:13;;;;;;;10.13;4.40;;;;;;;24.29;40.15;100352.19;4235443;28;20262;-69
2023/06/10 08:18:40;;;;;;;11.45;4.03;;;;;;;24.77;39.76;100364.06;4248821;28;21376;-71
2023/06/10 08:21:07;;;;;;;13.10;4.30;;;;;;;24.86;38.77;100358.97;4212533;28;20463;-74
2023/06/10 08:23:34;;;;;;;12.75;4.22;;;;;;;24.63;39.40;100357.91;4229253;28;20290;-68
2023/06/10 08:26:00;;;;;;;11.07;3.73;;;;;;;24.96;39.27;100357.28;4261442;28;20245;-68
2023/06/10 08:28:27;;;;;;;11.20;3.93;;;;;;;25.19;37.31;100368.53;4231758;28;20236;-72
2023/06/10 08:30:53;;;;;;;10.93;4.57;;;;;;;24.64;39.13;100360.47;4229033;28;21743;-75
2023/06/10 08:33:22;;;;;;;16.60;4.63;;;;;;;24.56;40.57;100354.44;4212693;28;20232;-67
2023/06/10 08:35:49;;;;;;;9.63;3.70;;;;;;;24.68;39.54;100358.09;4230284;28;20240;-71
2023/06/10 08:38:16;;;;;;;11.70;4.63;;;;;;;24.62;39.90;100362.63;4224056;28;20316;-69
2023/06/10 08:40:43;;;;;;;12.17;4.27;;;;;;;24.71;39.56;100359.50;4227016;28;20302;-70
2023/06/10 08:43:41;;;;;;;10.57;4.67;;;;;;;24.84;40.42;100349.03;4223129;28;20604;-71
2023/06/10 08:46:11;;;;;;;12.27;4.15;;;;;;;24.50;40.17;100351.56;4245087;28;20283;-69
2023/06/10 08:48:42;;;;;;;9.00;4.00;;;;;;;24.01;40.78;100356.50;4232036;28;20317;-71
2023/06/10 08:51:10;;;;;;;12.27;3.60;;;;;;;24.32;40.83;100362.78;4221332;28;22191;-71
2023/06/10 08:53:38;;;;;;;9.97;4.50;;;;;;;24.33;40.50;100372.75;4230845;28;21316;-75
2023/06/10 08:56:06;;;;;;;12.07;4.80;;;;;;;24.34;40.07;100371.66;4224345;28;21144;-72
2023/06/10 08:58:41;;;;;;;10.17;4.27;;;;;;;24.27;40.42;100369.03;4240090;28;20239;-72
2023/06/10 09:01:08;;;;;;;9.33;4.50;;;;;;;23.85;41.23;100375.44;4207867;28;20239;-70
2023/06/10 09:03:37;;;;;;;8.53;4.23;;;;;;;23.73;41.30;100375.41;4213981;28;25506;-68
2023/06/10 09:06:05;;;;;;;9.27;4.40;;;;;;;23.66;41.68;100366.38;4223654;28;20538;-70
2023/06/10 09:08:34;;;;;;;15.53;4.17;;;;;;;24.00;41.10;100368.66;4212291;28;20236;-69
2023/06/10 09:11:00;;;;;;;12.33;4.43;;;;;;;23.76;41.39;100365.81;4215225;28;23466;-72
2023/06/10 09:13:27;;;;;;;7.60;4.30;;;;;;;23.53;41.21;100375.72;4214105;28;21138;-69
2023/06/10 09:15:56;;;;;;;13.00;4.40;;;;;;;23.48;41.50;100375.59;4202842;28;20278;-66
2023/06/10 09:18:23;;;;;;;8.10;4.33;;;;;;;23.21;42.19;100362.13;4211720;28;20391;-43
2023/06/10 09:20:49;;;;;;;11.73;4.30;;;;;;;23.27;41.56;100382.47;4198803;28;20227;-42
2023/06/10 09:23:16;;;;;;;10.27;4.13;;;;;;;23.40;41.40;100373.97;4214145;28;20227;-45
2023/06/10 09:25:43;;;;;;;12.37;4.43;;;;;;;23.46;40.42;100385.16;4228328;28;20311;-43
2023/06/10 09:28:13;;;;;;;6.30;4.10;;;;;;;23.91;39.66;100379.16;4227244;28;20231;-45
2023/06/10 09:30:40;;;;;;;9.97;4.37;;;;;;;23.38;40.00;100378.06;4217261;28;20237;-44
2023/06/10 09:33:12;;;;;;;12.50;4.00;;;;;;;23.76;38.87;100384.28;4236454;28;22283;-45
2023/06/10 09:35:48;;;;;;;10.37;3.87;;;;;;;23.96;38.77;100382.09;4231415;28;20281;-42
2023/06/10 09:38:20;;;;;;;7.63;4.10;;;;;;;24.12;38.88;100376.97;4232926;28;26118;-66
2023/06/10 09:40:50;;;;;;;13.83;4.30;;;;;;;23.89;38.85;100378.56;4199470;28;20310;-68
2023/06/10 09:43:17;;;;;;;8.33;3.57;;;;;;;23.55;37.95;100373.56;4212126;28;20232;-65
2023/06/10 09:45:44;;;;;;;7.80;3.77;;;;;;;23.61;36.32;100373.69;4201628;28;22817;-66
2023/06/10 09:48:10;;;;;;;10.60;3.80;;;;;;;23.85;36.07;100369.91;4215609;28;20659;-73
2023/06/10 09:50:43;;;;;;;11.00;3.73;;;;;;;23.84;36.06;100362.69;4201127;28;21485;-68
2023/06/10 09:53:10;;;;;;;5.60;3.10;;;;;;;23.86;36.27;100374.38;4213992;28;20359;-72
2023/06/10 09:55:41;;;;;;;8.63;3.20;;;;;;;24.03;34.69;100359.84;4205246;28;20449;-73
2023/06/10 09:58:08;;;;;;;14.10;3.90;;;;;;;23.78;35.89;100382.16;4218963;28;20294;-73
2023/06/10 10:00:35;;;;;;;9.73;3.50;;;;;;;24.12;35.81;100390.78;4214634;28;20228;-73
2023/06/10 10:03:01;;;;;;;8.20;3.60;;;;;;;23.98;34.22;100377.16;4208499;28;20283;-73
2023/06/10 10:05:29;;;;;;;6.90;3.50;;;;;;;24.03;35.43;100376.44;4211422;28;20243;-73
2023/06/10 10:07:56;;;;;;;6.73;3.60;;;;;;;24.16;36.02;100375.38;4222824;28;20244;-74
2023/06/10 10:10:23;;;;;;;9.27;3.67;;;;;;;24.01;35.20;100368.41;4200967;28;20228;-74
2023/06/10 10:12:56;;;;;;;6.03;3.13;;;;;;;23.94;33.05;100359.38;4214297;28;22506;-76
2023/06/10 10:15:27;;;;;;;8.37;3.47;;;;;;;23.67;33.82;100370.84;4223639;28;20557;-67
2023/06/10 10:18:09;;;;;;;11.63;3.67;;;;;;;23.68;34.75;100366.97;4214095;28;20282;-47
2023/06/10 10:20:50;;;;;;;6.97;3.53;;;;;;;23.80;34.38;100368.94;4211374;28;20232;-45
2023/06/10 10:23:21;;;;;;;11.97;3.77;;;;;;;23.95;35.06;100369.38;4246746;28;20335;-44
2023/06/10 10:25:52;;;;;;;9.60;3.63;;;;;;;23.85;34.97;100347.81;4259965;28;20551;-53
2023/06/10 10:28:26;;;;;;;6.80;3.40;;;;;;;23.98;34.11;100362.50;4285797;28;20551;-68
2023/06/10 10:30:54;;;;;;;10.37;3.30;;;;;;;23.93;34.13;100360.44;4321638;28;20236;-66
2023/06/10 10:33:41;;;;;;;14.97;3.50;;;;;;;24.03;33.65;100352.41;4330799;28;24227;-66
2023/06/10 10:36:08;;;;;;;13.40;3.47;;;;;;;23.82;35.09;100347.44;4342721;28;20236;-64
2023/06/10 10:38:35;;;;;;;14.73;3.60;;;;;;;24.10;35.35;100357.00;4291624;28;20310;-66
2023/06/10 10:41:03;;;;;;;7.73;3.40;;;;;;;24.28;33.87;100356.03;4266933;28;20562;-67
2023/06/10 10:43:30;;;;;;;7.83;3.50;;;;;;;24.39;33.68;100365.41;4297780;28;21227;-69
2023/06/10 10:46:01;;;;;;;7.17;3.30;;;;;;;24.67;33.35;100360.00;4291884;28;21500;-68
2023/06/10 10:48:35;;;;;;;7.63;3.43;;;;;;;24.60;32.37;100361.19;4247829;28;20240;-69
2023/06/10 10:51:02;;;;;;;10.43;3.80;;;;;;;24.75;32.83;100353.25;4259632;28;20409;-65
2023/06/10 10:53:29;;;;;;;6.53;3.87;;;;;;;24.89;32.48;100352.97;4257033;28;20249;-66
2023/06/10 10:56:15;;;;;;;8.53;3.40;;;;;;;24.72;31.83;100361.19;4289903;28;22167;-66
2023/06/10 10:58:42;;;;;;;10.17;3.73;;;;;;;24.86;31.95;100359.84;4233183;28;20359;-68
2023/06/10 11:01:14;;;;;;;8.27;3.50;;;;;;;24.59;32.56;100349.25;4273778;28;22007;-68
2023/06/10 11:03:46;;;;;;;8.93;3.73;;;;;;;24.58;32.96;100342.06;4314127;28;20330;-68
2023/06/10 11:06:16;;;;;;;7.63;3.43;;;;;;;24.74;32.66;100350.69;4241000;28;20232;-65
2023/06/10 11:08:43;;;;;;;8.23;3.60;;;;;;;25.08;31.80;100345.31;4266009;28;20285;-66
2023/06/10 11:11:24;;;;;;;9.93;3.60;;;;;;;25.08;32.00;100335.06;4300095;28;20318;-67
2023/06/10 11:14:04;;;;;;;8.93;3.33;;;;;;;25.12;30.81;100349.28;4272912;28;20267;-69
2023/06/10 11:16:43;;;;;;;10.20;3.70;;;;;;;24.90;30.13;100338.03;4374888;28;20303;-71
2023/06/10 11:19:37;;;;;;;7.05;3.47;;;;;;;25.38;30.63;100347.88;4308821;28;20516;-71
2023/06/10 11:22:08;;;;;;;8.27;3.63;;;;;;;25.17;30.26;100335.53;4360376;28;20267;-71
2023/06/10 11:24:35;;;;;;;6.43;3.27;;;;;;;25.75;29.92;100332.72;4383803;28;21641;-68